Puerto Banus, Marbella

>

This is an optional block (switch it off / on) in the settings - file ($SITE['banners'] = false;)

You can display ads, any other important text or photo’s using text / html or PHP code.

You can place one or more at the top and or bottom and it can all be different for content / size .



Meteosat more information blitzortung!


Radar lluvias  rain snow radar


Visita nuestra red de sitios de meteo:

Documentation for the template used

MeteoibericaRed estaciones Meteorologicas

MeteoclimaticRed estaciones Meteorologicas



Sin Advertencias climatologicas .En este momento tenemos Nivel Verde.    No hay Alarmas

Pagina Historial Weather Underground texto

Diario Resumen Diciembre 27, 2017 Unidades:  Métrico    impérial   Tanto
« Anterior Dia
Siguiente Dia »
Diario Semana Mensual Anual Personalizada
  Maxima: Minima: Media:
Temperatura: -17.8 °C -9.9 °C -8.7 °C
Punto de rocío: -17.8 °C -13.1 °C -11.8 °C
Humedad: Humidity % 56 % 71 %
Velocidad del Viento: 0 km/h 6 km/h 48.4 km/h
Ráfagas de viento: 0 km/h - -
Viento:- - West
Pression baro: 0 hPa 34337.4 hPa -
Précipitaciones: 0 mm    
Historical Graphs
 
 
Datos de tabla para Diciembre 27, 2017
Tiempo Temperatura Punto de rocío Pression baro Viento Velocidad del Viento Ráfagas de viento Humedad Las precipitaciones Rate ( Hora )
-17.8 °C -17.8 °C 0 hPa Calm     Humidity % 0 mm
00:02 -9.3 °C -12.3 °C 34544 hPa West 29.8 km/h 29.8 km/h 70 % 0 mm
00:07 -9.4 °C -12.4 °C 34544 hPa West 17.9 km/h 17.9 km/h 70 % 0 mm
00:12 -9.4 °C -12.6 °C 34533.8 hPa West 26.9 km/h 26.9 km/h 69 % 0 mm
00:13 -9.4 °C -12.6 °C 34533.8 hPa WSW 25.9 km/h 25.9 km/h 69 % 0 mm
00:18 -9.3 °C -12.6 °C 34533.8 hPa WSW 25.9 km/h 25.9 km/h 68 % 0 mm
00:22 -9.3 °C -12.6 °C 34533.8 hPa WSW 15 km/h 15 km/h 68 % 0 mm
00:24 -9.3 °C -12.6 °C 34533.8 hPa SW 20.9 km/h 20.9 km/h 68 % 0 mm
00:27 -9.2 °C -12.6 °C 34533.8 hPa WSW 23.8 km/h 23.8 km/h 67 % 0 mm
00:29 -9.2 °C -12.6 °C 34533.8 hPa WSW 23.8 km/h 23.8 km/h 67 % 0 mm
00:32 -9.2 °C -12.3 °C 34533.8 hPa WSW 23.8 km/h 23.8 km/h 69 % 0 mm
00:34 -9.2 °C -12.3 °C 34533.8 hPa West 15.6 km/h 15.6 km/h 69 % 0 mm
00:38 -9.2 °C -12.4 °C 34520.3 hPa South 23.3 km/h 23.3 km/h 68 % 0 mm
00:41 -9.2 °C -12.8 °C 34520.3 hPa SE 29.8 km/h 29.8 km/h 65 % 0 mm
00:43 -9.1 °C -12.8 °C 34520.3 hPa South 20.9 km/h 20.9 km/h 65 % 0 mm
00:48 -9.1 °C -12.4 °C 34520.3 hPa SW 15 km/h 15 km/h 67 % 0 mm
00:49 -9.1 °C -12.4 °C 34510.1 hPa SW 15 km/h 15 km/h 67 % 0 mm
00:51 -9.1 °C -12.4 °C 34510.1 hPa SW 11.9 km/h 11.9 km/h 67 % 0 mm
00:55 -9.1 °C -12.4 °C 34510.1 hPa WSW 9 km/h 9 km/h 68 % 0 mm
01:00 -9.1 °C -12.6 °C 34510.1 hPa WSW 23.8 km/h 23.8 km/h 67 % 0 mm
01:05 -9.1 °C -12.7 °C 34520.3 hPa WNW 11.9 km/h 11.9 km/h 66 % 0 mm
01:10 -9.1 °C -12.8 °C 34510.1 hPa West 32.8 km/h 32.8 km/h 65 % 0 mm
01:14 -9.1 °C -12.9 °C 34510.1 hPa NW 26.9 km/h 26.9 km/h 64 % 0 mm
01:16 -9.1 °C -12.9 °C 34510.1 hPa WSW 11.9 km/h 11.9 km/h 64 % 0 mm
01:21 -9.1 °C -12.8 °C 34510.1 hPa West 18.2 km/h 18.2 km/h 64 % 0 mm
01:22 -9.1 °C -12.8 °C 34496.6 hPa West 17.9 km/h 17.9 km/h 64 % 0 mm
01:25 -9.1 °C -12.8 °C 34510.1 hPa West 20.9 km/h 20.9 km/h 64 % 0 mm
01:29 -9.1 °C -12.7 °C 34510.1 hPa WNW 10.3 km/h 10.3 km/h 65 % 0 mm
01:34 -9.1 °C -12.7 °C 34496.6 hPa NW 17.9 km/h 17.9 km/h 65 % 0 mm
01:39 -9.1 °C -12.7 °C 34496.6 hPa West 23.8 km/h 23.8 km/h 65 % 0 mm
01:40 -9.1 °C -12.7 °C 34496.6 hPa West 23.8 km/h 23.8 km/h 65 % 0 mm
01:45 -9.1 °C -12.6 °C 34486.4 hPa West 15 km/h 15 km/h 66 % 0 mm
01:50 -9.1 °C -12.6 °C 34486.4 hPa WNW 12.9 km/h 20.8 km/h 66 % 0 mm
01:54 -9.1 °C -12.6 °C 34486.4 hPa WNW 29.8 km/h 29.8 km/h 67 % 0 mm
01:56 -9.1 °C -12.6 °C 34486.4 hPa West 26.9 km/h 26.9 km/h 67 % 0 mm
02:00 -9.2 °C -12.4 °C 34486.4 hPa WNW 15.6 km/h 36.2 km/h 68 % 0 mm
02:02 -9.2 °C -12.4 °C 34486.4 hPa West 29.8 km/h 29.8 km/h 68 % 0 mm
02:07 -9.2 °C -12.4 °C 34476.3 hPa WNW 33.6 km/h 33.6 km/h 68 % 0 mm
02:12 -9.2 °C -12.4 °C 34476.3 hPa WNW 23.8 km/h 23.8 km/h 68 % 0 mm
02:13 -9.2 °C -12.4 °C 34476.3 hPa West 26.9 km/h 26.9 km/h 68 % 0 mm
02:18 -9.2 °C -12.4 °C 34476.3 hPa WNW 32.8 km/h 32.8 km/h 68 % 0 mm
02:21 -9.2 °C -12.3 °C 34476.3 hPa WSW 23.8 km/h 23.8 km/h 69 % 0 mm
02:23 -9.2 °C -12.4 °C 34462.7 hPa West 29.8 km/h 29.8 km/h 69 % 0 mm
02:27 -9.3 °C -12.3 °C 34462.7 hPa West 44.1 km/h 44.1 km/h 70 % 0 mm
02:30 -9.3 °C -12.3 °C 34462.7 hPa West 31.1 km/h 31.1 km/h 70 % 0 mm
02:32 -9.3 °C -12.2 °C 34452.6 hPa West 33.6 km/h 33.6 km/h 71 % 0 mm
02:37 -9.3 °C -12.1 °C 34452.6 hPa West 29.8 km/h 29.8 km/h 72 % 0 mm
02:39 -9.3 °C -12.1 °C 34452.6 hPa WSW 44.7 km/h 44.7 km/h 72 % 0 mm
02:44 -9.4 °C -12.1 °C 34452.6 hPa West 44.7 km/h 44.7 km/h 73 % 0 mm
02:45 -9.4 °C -12 °C 34452.6 hPa WSW 32.8 km/h 32.8 km/h 74 % 0 mm
02:50 -9.4 °C -12 °C 34452.6 hPa West 41.7 km/h 41.7 km/h 74 % 0 mm
02:55 -9.4 °C -12 °C 34442.4 hPa West 41.7 km/h 41.7 km/h 74 % 0 mm
02:57 -9.4 °C -12 °C 34452.6 hPa West 35.7 km/h 35.7 km/h 74 % 0 mm
03:02 -9.4 °C -11.9 °C 34442.4 hPa WSW 44.7 km/h 44.7 km/h 74 % 0 mm
03:03 -9.4 °C -11.9 °C 34442.4 hPa West 44.7 km/h 44.7 km/h 74 % 0 mm
03:08 -9.3 °C -11.8 °C 34452.6 hPa WNW 33.6 km/h 33.6 km/h 75 % 0 mm
03:11 -9.3 °C -11.9 °C 34442.4 hPa West 32.8 km/h 32.8 km/h 74 % 0 mm
03:13 -9.3 °C -11.9 °C 34442.4 hPa West 41.7 km/h 41.7 km/h 74 % 0 mm
03:17 -9.3 °C -11.9 °C 34428.8 hPa West 32.8 km/h 32.8 km/h 74 % 0 mm
03:18 -9.3 °C -11.9 °C 34428.8 hPa West 44.7 km/h 44.7 km/h 74 % 0 mm
03:23 -9.3 °C -11.8 °C 34418.7 hPa West 53.6 km/h 53.6 km/h 74 % 0 mm
03:28 -9.3 °C -11.8 °C 34428.8 hPa West 53.6 km/h 53.6 km/h 74 % 0 mm
03:29 -9.3 °C -11.8 °C 34428.8 hPa West 53.6 km/h 53.6 km/h 74 % 0 mm
03:33 -9.3 °C -11.8 °C 34428.8 hPa WSW 50.7 km/h 50.7 km/h 74 % 0 mm
03:34 -9.3 °C -11.8 °C 34428.8 hPa West 50.7 km/h 50.7 km/h 74 % 0 mm
03:39 -9.2 °C -11.8 °C 34428.8 hPa West 53.6 km/h 53.6 km/h 74 % 0 mm
03:40 -9.2 °C -11.8 °C 34428.8 hPa West 53.6 km/h 53.6 km/h 74 % 0 mm
03:45 -9.2 °C -11.8 °C 34418.7 hPa West 50.7 km/h 50.7 km/h 74 % 0 mm
03:50 -9.2 °C -11.8 °C 34418.7 hPa West 68.6 km/h 68.6 km/h 74 % 0 mm
03:53 -9.2 °C -11.8 °C 34418.7 hPa WSW 68.6 km/h 68.6 km/h 74 % 0 mm
03:57 -9.2 °C -11.6 °C 34418.7 hPa West 59.5 km/h 59.5 km/h 75 % 0 mm
04:00 -9.2 °C -11.6 °C 34418.7 hPa WSW 62.6 km/h 62.6 km/h 75 % 0 mm
04:03 -9.2 °C -11.6 °C 34418.7 hPa WSW 74.5 km/h 74.5 km/h 75 % 0 mm
04:07 -9.2 °C -11.6 °C 34405.1 hPa West 68.6 km/h 68.6 km/h 76 % 0 mm
04:08 -9.2 °C -11.6 °C 34418.7 hPa WSW 72.6 km/h 72.6 km/h 76 % 0 mm
04:13 -9.3 °C -11.6 °C 34418.7 hPa West 62.6 km/h 62.6 km/h 76 % 0 mm
04:18 -9.3 °C -11.5 °C 34405.1 hPa West 75.2 km/h 75.2 km/h 77 % 0 mm
04:22 -9.3 °C -11.4 °C 34418.7 hPa West 62.6 km/h 62.6 km/h 78 % 0 mm
04:24 -9.3 °C -11.4 °C 34418.7 hPa West 80.5 km/h 80.5 km/h 78 % 0 mm
04:28 -9.3 °C -11.5 °C 34418.7 hPa West 68.6 km/h 68.6 km/h 78 % 0 mm
04:31 -9.4 °C -11.4 °C 34418.7 hPa WSW 89.3 km/h 89.3 km/h 79 % 0 mm
04:34 -9.5 °C -11.4 °C 34418.7 hPa West 86.4 km/h 86.4 km/h 80 % 0 mm
04:39 -9.6 °C -11.3 °C 34405.1 hPa West 65.5 km/h 65.5 km/h 81 % 0 mm
04:40 -9.5 °C -11.3 °C 34418.7 hPa WSW 65.5 km/h 65.5 km/h 81 % 0 mm
04:41 -9.6 °C -11.3 °C 34405.1 hPa WSW 77.4 km/h 77.4 km/h 81 % 0 mm
04:46 -9.6 °C -11.3 °C 34405.1 hPa West 83.4 km/h 83.4 km/h 82 % 0 mm
04:47 -9.6 °C -11.3 °C 34405.1 hPa WSW 85.5 km/h 85.5 km/h 82 % 0 mm
04:52 -9.6 °C -11.2 °C 34405.1 hPa WSW 89.3 km/h 89.3 km/h 83 % 0 mm
04:53 -9.6 °C -11.2 °C 34405.1 hPa WSW 89.3 km/h 89.3 km/h 83 % 0 mm
04:58 -9.7 °C -11.2 °C 34395 hPa WSW 80.5 km/h 80.5 km/h 84 % 0 mm
05:04 -9.8 °C -11.1 °C 34395 hPa WSW 83.4 km/h 83.4 km/h 86 % 0 mm
05:06 -9.8 °C -11.2 °C 34395 hPa WSW 68.6 km/h 68.6 km/h 86 % 0 mm
05:09 -9.9 °C -11.2 °C 34395 hPa WSW 77.4 km/h 77.4 km/h 86 % 0 mm
05:14 -9.9 °C -11.1 °C 34395 hPa WSW 68.6 km/h 68.6 km/h 87 % 0 mm
05:16 -9.9 °C -11.1 °C 34395 hPa WSW 71.5 km/h 71.5 km/h 87 % 0 mm
05:17 -9.9 °C -11.1 °C 34405.1 hPa WSW 75.2 km/h 75.2 km/h 87 % 0 mm
05:22 -9.9 °C -11 °C 34395 hPa WSW 83.4 km/h 83.4 km/h 88 % 0 mm
05:24 -9.9 °C -11 °C 34395 hPa West 68.6 km/h 68.6 km/h 88 % 0 mm
05:25 -9.9 °C -11 °C 34395 hPa SW 68.6 km/h 68.6 km/h 88 % 0 mm
05:30 -9.9 °C -10.9 °C 34384.8 hPa WSW 68.6 km/h 68.6 km/h 89 % 0 mm
05:32 -9.9 °C -10.9 °C 34384.8 hPa WSW 71.5 km/h 71.5 km/h 89 % 0 mm
05:35 -9.9 °C -10.9 °C 34371.3 hPa West 71.5 km/h 71.5 km/h 89 % 0 mm
05:38 -9.8 °C -10.8 °C 34371.3 hPa WSW 74.5 km/h 74.5 km/h 89 % 0 mm
05:40 -9.8 °C -10.8 °C 34384.8 hPa WSW 80.5 km/h 80.5 km/h 89 % 0 mm
05:45 -9.8 °C -10.8 °C 34371.3 hPa WSW 80.3 km/h 80.3 km/h 89 % 0 mm
05:46 -9.8 °C -10.8 °C 34371.3 hPa WSW 71.5 km/h 71.5 km/h 89 % 0 mm
05:47 -9.8 °C -10.8 °C 34361.1 hPa WSW 80.5 km/h 80.5 km/h 89 % 0 mm
05:51 -9.8 °C -10.8 °C 34371.3 hPa WSW 83.4 km/h 83.4 km/h 89 % 0 mm
05:54 -9.8 °C -10.8 °C 34361.1 hPa WSW 77.4 km/h 77.4 km/h 89 % 0 mm
05:57 -9.8 °C -10.8 °C 34361.1 hPa WSW 89.3 km/h 89.3 km/h 89 % 0 mm
06:00 -9.8 °C -10.7 °C 34361.1 hPa WSW 83.4 km/h 83.4 km/h 90 % 0 mm
06:02 -9.8 °C -10.7 °C 34347.6 hPa WSW 83.4 km/h 83.4 km/h 90 % 0 mm
06:07 -9.8 °C -10.7 °C 34361.1 hPa WSW 68.6 km/h 68.6 km/h 90 % 0 mm
06:09 -9.8 °C -10.7 °C 34347.6 hPa WSW 80.5 km/h 80.5 km/h 90 % 0 mm
06:14 -9.7 °C -10.6 °C 34347.6 hPa WSW 68.6 km/h 68.6 km/h 90 % 0 mm
06:15 -9.7 °C -10.6 °C 34347.6 hPa WSW 71.5 km/h 71.5 km/h 90 % 0 mm
06:16 -9.7 °C -10.6 °C 34347.6 hPa WSW 71.5 km/h 71.5 km/h 90 % 0 mm
06:21 -9.7 °C -10.6 °C 34361.1 hPa WSW 68.6 km/h 68.6 km/h 90 % 0 mm
06:22 -9.6 °C -10.5 °C 34361.1 hPa WSW 71.5 km/h 71.5 km/h 90 % 0 mm
06:25 -9.6 °C -10.5 °C 34347.6 hPa WSW 74.5 km/h 74.5 km/h 90 % 0 mm
06:27 -9.6 °C -10.6 °C 34361.1 hPa WSW 68.6 km/h 68.6 km/h 89 % 0 mm
06:32 -9.6 °C -10.6 °C 34361.1 hPa WSW 83.4 km/h 83.4 km/h 89 % 0 mm
06:33 -9.6 °C -10.6 °C 34361.1 hPa WSW 72.6 km/h 72.6 km/h 89 % 0 mm
06:38 -9.6 °C -10.6 °C 34361.1 hPa WSW 68.6 km/h 68.6 km/h 89 % 0 mm
06:39 -9.6 °C -10.6 °C 34361.1 hPa West 68.6 km/h 68.6 km/h 89 % 0 mm
06:43 -9.6 °C -10.6 °C 34347.6 hPa WSW 72.6 km/h 72.6 km/h 89 % 0 mm
06:44 -9.6 °C -10.6 °C 34371.3 hPa WSW 71.5 km/h 71.5 km/h 89 % 0 mm
06:48 -9.6 °C -10.4 °C 34361.1 hPa WSW 68.6 km/h 68.6 km/h 90 % 0 mm
06:53 -9.6 °C -10.4 °C 34361.1 hPa WSW 68.6 km/h 68.6 km/h 90 % 0 mm
06:54 -9.6 °C -10.4 °C 34347.6 hPa WSW 68.6 km/h 68.6 km/h 90 % 0 mm
06:59 -9.6 °C -10.4 °C 34347.6 hPa WSW 80.5 km/h 80.5 km/h 90 % 0 mm
07:00 -9.6 °C -10.4 °C 34347.6 hPa WSW 71.5 km/h 71.5 km/h 90 % 0 mm
07:05 -9.5 °C -10.4 °C 34361.1 hPa WSW 77.4 km/h 77.4 km/h 90 % 0 mm
07:07 -9.5 °C -10.4 °C 34361.1 hPa WSW 68.6 km/h 68.6 km/h 90 % 0 mm
07:09 -9.4 °C -10.3 °C 34347.6 hPa WSW 65.5 km/h 65.5 km/h 90 % 0 mm
07:13 -9.4 °C -10.3 °C 34337.4 hPa SW 62.6 km/h 62.6 km/h 90 % 0 mm
07:18 -9.4 °C -10.4 °C 34347.6 hPa WSW 68.6 km/h 68.6 km/h 89 % 0 mm
07:21 -9.3 °C -10.3 °C 34347.6 hPa WSW 77.4 km/h 77.4 km/h 89 % 0 mm
07:25 -9.4 °C -10.5 °C 34337.4 hPa WSW 89.3 km/h 89.3 km/h 88 % 0 mm
07:26 -9.4 °C -10.5 °C 34337.4 hPa SW 89.3 km/h 89.3 km/h 88 % 0 mm
07:31 -9.4 °C -10.4 °C 34337.4 hPa SW 80.5 km/h 80.5 km/h 89 % 0 mm
07:32 -9.4 °C -10.4 °C 34337.4 hPa WSW 80.5 km/h 80.5 km/h 89 % 0 mm
07:37 -9.4 °C -10.4 °C 34337.4 hPa SW 74.5 km/h 74.5 km/h 89 % 0 mm
07:41 -9.4 °C -10.4 °C 34337.4 hPa WSW 80.3 km/h 80.3 km/h 89 % 0 mm
07:42 -9.4 °C -10.4 °C 34337.4 hPa WSW 89.3 km/h 89.3 km/h 89 % 0 mm
07:48 -9.4 °C -10.4 °C 34337.4 hPa WSW 77.4 km/h 77.4 km/h 89 % 0 mm
07:50 -9.3 °C -10.3 °C 34337.4 hPa WSW 83.4 km/h 83.4 km/h 89 % 0 mm
07:53 -9.3 °C -10.3 °C 34337.4 hPa WSW 71.5 km/h 71.5 km/h 89 % 0 mm
07:55 -9.3 °C -10.3 °C 34337.4 hPa WSW 62.1 km/h 80.3 km/h 89 % 0 mm
07:59 -9.3 °C -10.3 °C 34337.4 hPa WSW 83.4 km/h 83.4 km/h 89 % 0 mm
08:02 -9.3 °C -10.4 °C 34337.4 hPa WSW 74.5 km/h 74.5 km/h 88 % 0 mm
08:05 -9.3 °C -10.4 °C 34347.6 hPa WSW 92.4 km/h 92.4 km/h 88 % 0 mm
08:08 -9.3 °C -10.4 °C 34337.4 hPa SW 80.5 km/h 80.5 km/h 88 % 0 mm
08:10 -9.3 °C -10.4 °C 34347.6 hPa WSW 86.4 km/h 86.4 km/h 88 % 0 mm
08:15 -9.3 °C -10.4 °C 34347.6 hPa WSW 77.4 km/h 77.4 km/h 88 % 0 mm
08:16 -9.3 °C -10.4 °C 34337.4 hPa WSW 77.4 km/h 77.4 km/h 88 % 0 mm
08:21 -9.3 °C -10.3 °C 34337.4 hPa WSW 71.5 km/h 71.5 km/h 89 % 0 mm
08:22 -9.3 °C -10.3 °C 34337.4 hPa WSW 77.4 km/h 77.4 km/h 89 % 0 mm
08:26 -9.3 °C -10.3 °C 34347.6 hPa WSW 83.4 km/h 83.4 km/h 89 % 0 mm
08:30 -9.3 °C -10.4 °C 34337.4 hPa WSW 62.1 km/h 85.5 km/h 88 % 0 mm
08:35 -9.2 °C -10.3 °C 34347.6 hPa WSW 69.8 km/h 69.8 km/h 88 % 0 mm
08:40 -9.1 °C -10.3 °C 34347.6 hPa WSW 77.4 km/h 77.4 km/h 87 % 0 mm
08:41 -9.1 °C -10.3 °C 34347.6 hPa WSW 77.4 km/h 77.4 km/h 87 % 0 mm
08:43 -9.1 °C -10.3 °C 34347.6 hPa WSW 71.5 km/h 71.5 km/h 87 % 0 mm
08:46 -9.1 °C -10.3 °C 34347.6 hPa WSW 74.5 km/h 74.5 km/h 87 % 0 mm
08:51 -9.1 °C -10.3 °C 34361.1 hPa WSW 77.4 km/h 77.4 km/h 87 % 0 mm
08:52 -9.2 °C -10.4 °C 34347.6 hPa WSW 62.6 km/h 62.6 km/h 87 % 0 mm
08:57 -9.2 °C -10.3 °C 34361.1 hPa WSW 80.5 km/h 80.5 km/h 88 % 0 mm
08:58 -9.2 °C -10.3 °C 34347.6 hPa WSW 80.5 km/h 80.5 km/h 88 % 0 mm
08:59 -9.2 °C -10.3 °C 34347.6 hPa WSW 89.3 km/h 89.3 km/h 88 % 0 mm
09:04 -9.2 °C -10.3 °C 34347.6 hPa WSW 68.6 km/h 68.6 km/h 88 % 0 mm
09:06 -9.2 °C -10.3 °C 34347.6 hPa SW 68.6 km/h 68.6 km/h 88 % 0 mm
09:08 -9.2 °C -10.3 °C 34361.1 hPa WSW 80.3 km/h 80.3 km/h 88 % 0 mm
09:13 -9.2 °C -10.2 °C 34361.1 hPa WSW 74.5 km/h 74.5 km/h 89 % 0 mm
09:16 -9.2 °C -10.2 °C 34361.1 hPa SW 68.6 km/h 68.6 km/h 89 % 0 mm
09:18 -9.3 °C -10.2 °C 34361.1 hPa WSW 74.5 km/h 74.5 km/h 89 % 0 mm
09:23 -9.3 °C -10.2 °C 34361.1 hPa SW 69.8 km/h 69.8 km/h 89 % 0 mm
09:24 -9.3 °C -10.2 °C 34361.1 hPa WSW 69.8 km/h 69.8 km/h 89 % 0 mm
09:29 -9.3 °C -10.3 °C 34347.6 hPa WSW 77.4 km/h 77.4 km/h 89 % 0 mm
09:32 -9.3 °C -10.2 °C 34347.6 hPa WSW 85.5 km/h 85.5 km/h 90 % 0 mm
09:37 -9.3 °C -10.2 °C 34361.1 hPa SW 68.6 km/h 68.6 km/h 90 % 0 mm
09:38 -9.3 °C -10.2 °C 34361.1 hPa West 71.5 km/h 71.5 km/h 90 % 0 mm
09:42 -9.3 °C -10.2 °C 34361.1 hPa WSW 74.5 km/h 74.5 km/h 90 % 0 mm
09:43 -9.3 °C -10.2 °C 34371.3 hPa WSW 75.2 km/h 75.2 km/h 90 % 0 mm
09:48 -9.3 °C -10.2 °C 34361.1 hPa West 71.5 km/h 71.5 km/h 90 % 0 mm
09:53 -9.3 °C -10.2 °C 34371.3 hPa WSW 75.2 km/h 75.2 km/h 90 % 0 mm
09:55 -9.3 °C -10.2 °C 34361.1 hPa SW 74.5 km/h 74.5 km/h 90 % 0 mm
10:00 -9.3 °C -10.1 °C 34371.3 hPa WSW 68.6 km/h 68.6 km/h 91 % 0 mm
10:01 -9.3 °C -10.1 °C 34371.3 hPa WSW 68.6 km/h 68.6 km/h 91 % 0 mm
10:06 -9.3 °C -10.1 °C 34371.3 hPa WSW 68.6 km/h 68.6 km/h 91 % 0 mm
10:07 -9.3 °C -10.1 °C 34384.8 hPa WSW 68.6 km/h 68.6 km/h 91 % 0 mm
10:12 -9.3 °C -10.1 °C 34384.8 hPa WSW 74.5 km/h 74.5 km/h 91 % 0 mm
10:17 -9.2 °C -10 °C 34384.8 hPa WSW 59.5 km/h 59.5 km/h 91 % 0 mm
10:18 -9.2 °C -10 °C 34384.8 hPa WSW 59.5 km/h 59.5 km/h 91 % 0 mm
10:21 -9.1 °C -9.9 °C 34395 hPa SW 53.6 km/h 53.6 km/h 91 % 0 mm
10:24 -9.1 °C -9.9 °C 34395 hPa WSW 44.7 km/h 44.7 km/h 90 % 0 mm
10:27 -9.1 °C -9.9 °C 34395 hPa SW 44.1 km/h 44.1 km/h 90 % 0 mm
10:31 -9 °C -10 °C 34395 hPa WSW 44.7 km/h 44.7 km/h 89 % 0 mm
10:36 -8.9 °C -10 °C 34405.1 hPa West 25.9 km/h 25.9 km/h 88 % 0 mm
10:37 -8.8 °C -9.9 °C 34405.1 hPa West 26.9 km/h 26.9 km/h 88 % 0 mm
10:42 -8.7 °C -10.1 °C 34405.1 hPa West 20.9 km/h 20.9 km/h 86 % 0 mm
10:44 -8.7 °C -10.1 °C 34405.1 hPa West 20.9 km/h 20.9 km/h 85 % 0 mm
10:49 -8.5 °C -10.3 °C 34418.7 hPa West 26.9 km/h 26.9 km/h 81 % 0 mm
10:50 -8.5 °C -10.3 °C 34418.7 hPa WSW 17.9 km/h 17.9 km/h 81 % 0 mm
10:51 -8.4 °C -10.4 °C 34418.7 hPa SW 20.8 km/h 20.8 km/h 80 % 0 mm
10:56 -8.3 °C -10.6 °C 34418.7 hPa WNW 9 km/h 9 km/h 77 % 0 mm
10:57 -8.3 °C -10.6 °C 34418.7 hPa WNW 9 km/h 9 km/h 77 % 0 mm
11:02 -8.2 °C -10.8 °C 34418.7 hPa NW 10.3 km/h 10.3 km/h 74 % 0 mm
11:06 -8.2 °C -10.9 °C 34418.7 hPa WNW 20.9 km/h 20.9 km/h 73 % 0 mm
11:11 -8.1 °C -11.2 °C 34418.7 hPa West 17.9 km/h 17.9 km/h 70 % 0 mm
11:12 -8.1 °C -11.2 °C 34428.8 hPa West 17.9 km/h 17.9 km/h 70 % 0 mm
11:17 -8.1 °C -11.3 °C 34428.8 hPa NW 20.9 km/h 20.9 km/h 69 % 0 mm
11:22 -8 °C -11.3 °C 34428.8 hPa WNW 23.8 km/h 23.8 km/h 68 % 0 mm
11:27 -8 °C -11.3 °C 34428.8 hPa SW 6 km/h   68 % 0 mm
11:32 -8 °C -11.4 °C 34428.8 hPa WSW 11.9 km/h 11.9 km/h 67 % 0 mm
11:33 -8 °C -11.4 °C 34428.8 hPa WSW 9 km/h 9 km/h 67 % 0 mm
11:38 -7.9 °C -11.7 °C 34428.8 hPa West 29.8 km/h 29.8 km/h 65 % 0 mm
11:43 -7.8 °C -11.7 °C 34428.8 hPa NW 29.8 km/h 29.8 km/h 64 % 0 mm
11:44 -7.8 °C -11.7 °C 34428.8 hPa WNW 33.6 km/h 33.6 km/h 64 % 0 mm
11:49 -7.7 °C -11.7 °C 34442.4 hPa West 25.9 km/h 25.9 km/h 63 % 0 mm
11:50 -7.7 °C -11.8 °C 34442.4 hPa WNW 35.7 km/h 35.7 km/h 62 % 0 mm
11:54 -7.6 °C -11.9 °C 34442.4 hPa NW 41.7 km/h 41.7 km/h 61 % 0 mm
11:59 -7.6 °C -11.9 °C 34428.8 hPa WNW 44.7 km/h 44.7 km/h 60 % 0 mm
12:00 -7.6 °C -11.9 °C 34428.8 hPa West 44.7 km/h 44.7 km/h 60 % 0 mm
12:05 -7.5 °C -11.9 °C 34428.8 hPa West 20.9 km/h 20.9 km/h 60 % 0 mm
12:10 -7.4 °C -12 °C 34428.8 hPa WNW 38.8 km/h 38.8 km/h 59 % 0 mm
12:11 -7.4 °C -12 °C 34428.8 hPa NNW 38.8 km/h 38.8 km/h 59 % 0 mm
12:12 -7.4 °C -12 °C 34428.8 hPa NW 26.9 km/h 26.9 km/h 59 % 0 mm
12:16 -7.4 °C -11.9 °C 34428.8 hPa WNW 26.9 km/h 26.9 km/h 59 % 0 mm
12:21 -7.4 °C -11.9 °C 34418.7 hPa NW 20.9 km/h 20.9 km/h 59 % 0 mm
12:22 -7.4 °C -11.9 °C 34418.7 hPa NW 20.9 km/h 20.9 km/h 59 % 0 mm
12:27 -7.3 °C -11.9 °C 34418.7 hPa WNW 20.9 km/h 20.9 km/h 59 % 0 mm
12:29 -7.3 °C -12 °C 34418.7 hPa NNW 15 km/h 15 km/h 58 % 0 mm
12:31 -7.3 °C -12 °C 34418.7 hPa NNW 18.2 km/h 18.2 km/h 58 % 0 mm
12:36 -7.3 °C -11.9 °C 34405.1 hPa WSW 33.6 km/h 33.6 km/h 58 % 0 mm
12:41 -7.3 °C -11.9 °C 34405.1 hPa NNE 15.6 km/h 15.6 km/h 58 % 0 mm
12:46 -7.3 °C -12 °C 34405.1 hPa West 15 km/h 15 km/h 58 % 0 mm
12:48 -7.3 °C -12 °C 34405.1 hPa West 15 km/h 15 km/h 58 % 0 mm
12:53 -7.3 °C -11.5 °C 34405.1 hPa WSW 26.9 km/h 26.9 km/h 62 % 0 mm
12:58 -7.5 °C -11.5 °C 34405.1 hPa West 20.9 km/h 20.9 km/h 63 % 0 mm
12:59 -7.6 °C -11.6 °C 34395 hPa West 17.9 km/h 17.9 km/h 63 % 0 mm
13:05 -7.6 °C -11.6 °C 34405.1 hPa West 15 km/h 15 km/h 63 % 0 mm
13:06 -7.6 °C -11.6 °C 34405.1 hPa WNW 11.9 km/h 13.2 km/h 63 % 0 mm
13:10 -7.6 °C -12.1 °C 34405.1 hPa SW 26.9 km/h 26.9 km/h 59 % 0 mm
13:12 -7.6 °C -11.9 °C 34405.1 hPa NW 20.9 km/h 20.9 km/h 60 % 0 mm
13:17 -7.4 °C -12.4 °C 34395 hPa West 38.8 km/h 38.8 km/h 56 % 0 mm
13:18 -7.4 °C -12.4 °C 34395 hPa West 44.7 km/h 44.7 km/h 56 % 0 mm
13:21 -7.4 °C -12.2 °C 34395 hPa West 32.8 km/h 32.8 km/h 57 % 0 mm
13:24 -7.4 °C -11.8 °C 34395 hPa WSW 54.4 km/h 54.4 km/h 60 % 0 mm
13:29 -7.7 °C -11.7 °C 34395 hPa West 35.7 km/h 35.7 km/h 63 % 0 mm
13:34 -7.8 °C -11.7 °C 34395 hPa West 47.6 km/h 47.6 km/h 64 % 0 mm
13:37 -7.8 °C -12.1 °C 34395 hPa West 36.2 km/h 36.2 km/h 61 % 0 mm
13:41 -7.7 °C -12 °C 34395 hPa WNW 26.9 km/h 26.9 km/h 61 % 0 mm
13:46 -7.7 °C -11.9 °C 34384.8 hPa West 59.5 km/h 59.5 km/h 61 % 0 mm
13:47 -7.7 °C -11.9 °C 34384.8 hPa West 59.5 km/h 59.5 km/h 61 % 0 mm
13:48 -7.7 °C -11.9 °C 34384.8 hPa WSW 59.5 km/h 59.5 km/h 61 % 0 mm
13:52 -7.7 °C -12.2 °C 34384.8 hPa West 36.2 km/h 36.2 km/h 59 % 0 mm
13:54 -7.6 °C -12 °C 34384.8 hPa WSW 38.8 km/h 38.8 km/h 60 % 0 mm
13:58 -7.6 °C -12 °C 34384.8 hPa WNW 38.8 km/h 38.8 km/h 60 % 0 mm
14:00 -7.6 °C -12.2 °C 34384.8 hPa West 41.7 km/h 41.7 km/h 59 % 0 mm
14:04 -7.7 °C -12.2 °C 34384.8 hPa West 50.7 km/h 50.7 km/h 59 % 0 mm
14:05 -7.7 °C -12.2 °C 34371.3 hPa West 38.8 km/h 38.8 km/h 59 % 0 mm
14:09 -7.7 °C -12.3 °C 34384.8 hPa West 35.7 km/h 35.7 km/h 59 % 0 mm
14:11 -7.7 °C -12.4 °C 34371.3 hPa WSW 56.6 km/h 56.6 km/h 58 % 0 mm
14:16 -7.7 °C -12.3 °C 34384.8 hPa West 51.8 km/h 51.8 km/h 59 % 0 mm
14:17 -7.7 °C -12.3 °C 34384.8 hPa WSW 50.7 km/h 50.7 km/h 59 % 0 mm
14:20 -7.7 °C -12.3 °C 34371.3 hPa West 38.8 km/h 38.8 km/h 59 % 0 mm
14:22 -7.8 °C -12.3 °C 34371.3 hPa West 29.8 km/h 29.8 km/h 59 % 0 mm
14:27 -7.7 °C -12.3 °C 34371.3 hPa West 50.7 km/h 50.7 km/h 59 % 0 mm
14:29 -7.7 °C -12.4 °C 34384.8 hPa WNW 50.7 km/h 50.7 km/h 58 % 0 mm
14:32 -7.7 °C -12.3 °C 34384.8 hPa WSW 47.6 km/h 47.6 km/h 59 % 0 mm
14:35 -7.8 °C -12.3 °C 34371.3 hPa West 50.7 km/h 50.7 km/h 59 % 0 mm
14:37 -7.8 °C -12.2 °C 34371.3 hPa WSW 50.7 km/h 50.7 km/h 60 % 0 mm
14:40 -7.8 °C -12.3 °C 34384.8 hPa WNW 50.7 km/h 50.7 km/h 59 % 0 mm
14:45 -7.8 °C -12.2 °C 34384.8 hPa WSW 44.7 km/h 44.7 km/h 60 % 0 mm
14:49 -7.8 °C -12.2 °C 34384.8 hPa West 26.9 km/h 26.9 km/h 60 % 0 mm
14:51 -7.9 °C -12.1 °C 34384.8 hPa WNW 38.8 km/h 38.8 km/h 61 % 0 mm
14:54 -7.9 °C -12.1 °C 34384.8 hPa West 41.7 km/h 41.7 km/h 61 % 0 mm
14:58 -7.9 °C -12.2 °C 34384.8 hPa WSW 47.6 km/h 47.6 km/h 61 % 0 mm
15:01 -7.9 °C -12.2 °C 34371.3 hPa West 44.7 km/h 44.7 km/h 61 % 0 mm
15:06 -8 °C -12.1 °C 34371.3 hPa WNW 47.6 km/h 47.6 km/h 62 % 0 mm
15:07 -8 °C -12.2 °C 34371.3 hPa WNW 47.6 km/h 47.6 km/h 61 % 0 mm
15:12 -8 °C -12.2 °C 34384.8 hPa West 41.7 km/h 41.7 km/h 61 % 0 mm
15:17 -8 °C -12.1 °C 34384.8 hPa WNW 23.8 km/h 23.8 km/h 62 % 0 mm
15:18 -8 °C -12.1 °C 34384.8 hPa NW 23.8 km/h 23.8 km/h 62 % 0 mm
15:23 -8.1 °C -12.2 °C 34384.8 hPa West 28.5 km/h 28.5 km/h 62 % 0 mm
15:26 -8.1 °C -12.2 °C 34384.8 hPa West 38.8 km/h 38.8 km/h 62 % 0 mm
15:29 -8 °C -12.1 °C 34384.8 hPa West 32.8 km/h 32.8 km/h 62 % 0 mm
15:31 -8.1 °C -12 °C 34384.8 hPa West 26.9 km/h 26.9 km/h 63 % 0 mm
15:36 -8.1 °C -12 °C 34371.3 hPa West 38.8 km/h 38.8 km/h 63 % 0 mm
15:41 -8.1 °C -12 °C 34371.3 hPa West 26.9 km/h 26.9 km/h 63 % 0 mm
15:44 -8.1 °C -12 °C 34371.3 hPa WSW 32.8 km/h 32.8 km/h 63 % 0 mm
15:45 -8.1 °C -12 °C 34371.3 hPa West 44.7 km/h 44.7 km/h 63 % 0 mm
15:50 -8.1 °C -11.9 °C 34371.3 hPa West 38.8 km/h 38.8 km/h 64 % 0 mm
15:53 -8.1 °C -11.8 °C 34371.3 hPa WSW 47.6 km/h 47.6 km/h 65 % 0 mm
15:56 -8.2 °C -11.7 °C 34371.3 hPa WSW 50.7 km/h 50.7 km/h 66 % 0 mm
16:01 -8.3 °C -11.7 °C 34371.3 hPa SW 68.6 km/h 68.6 km/h 67 % 0 mm
16:02 -8.3 °C -11.8 °C 34371.3 hPa West 62.6 km/h 62.6 km/h 67 % 0 mm
16:07 -8.4 °C -11.7 °C 34371.3 hPa West 50.7 km/h 50.7 km/h 68 % 0 mm
16:12 -8.4 °C -11.7 °C 34371.3 hPa WSW 56.6 km/h 56.6 km/h 68 % 0 mm
16:13 -8.4 °C -11.7 °C 34371.3 hPa West 56.6 km/h 56.6 km/h 68 % 0 mm
16:15 -8.4 °C -11.7 °C 34371.3 hPa West 62.6 km/h 62.6 km/h 68 % 0 mm
16:19 -8.4 °C -11.6 °C 34371.3 hPa WSW 56.6 km/h 56.6 km/h 69 % 0 mm
16:21 -8.5 °C -11.7 °C 34371.3 hPa West 47.6 km/h 47.6 km/h 69 % 0 mm
16:24 -8.5 °C -11.6 °C 34371.3 hPa West 65.5 km/h 65.5 km/h 70 % 0 mm
16:29 -8.6 °C -11.5 °C 34371.3 hPa West 56.6 km/h 56.6 km/h 71 % 0 mm
16:32 -8.7 °C -11.6 °C 34371.3 hPa West 74.5 km/h 74.5 km/h 71 % 0 mm
16:35 -8.7 °C -11.5 °C 34371.3 hPa WNW 68.6 km/h 68.6 km/h 72 % 0 mm
16:38 -8.7 °C -11.6 °C 34371.3 hPa West 65.5 km/h 65.5 km/h 71 % 0 mm
16:42 -8.6 °C -11.7 °C 34371.3 hPa West 50.7 km/h 50.7 km/h 70 % 0 mm
16:46 -8.6 °C -11.7 °C 34371.3 hPa West 38.8 km/h 38.8 km/h 70 % 0 mm
16:49 -8.6 °C -11.7 °C 34371.3 hPa WNW 47.6 km/h 47.6 km/h 69 % 0 mm
16:51 -8.5 °C -11.8 °C 34371.3 hPa West 50.7 km/h 50.7 km/h 68 % 0 mm
16:54 -8.4 °C -11.9 °C 34371.3 hPa WSW 47.6 km/h 47.6 km/h 66 % 0 mm
16:59 -8.4 °C -11.8 °C 34384.8 hPa West 59.5 km/h 59.5 km/h 68 % 0 mm
17:01 -8.4 °C -11.8 °C 34371.3 hPa West 59.5 km/h 59.5 km/h 68 % 0 mm
17:03 -8.5 °C -11.8 °C 34384.8 hPa WNW 56.6 km/h 56.6 km/h 68 % 0 mm
17:06 -8.5 °C -11.9 °C 34384.8 hPa West 44.7 km/h 44.7 km/h 67 % 0 mm
17:08 -8.4 °C -11.9 °C 34371.3 hPa NNW 41.4 km/h 41.4 km/h 67 % 0 mm
17:11 -8.4 °C -12 °C 34384.8 hPa WNW 38.8 km/h 38.8 km/h 66 % 0 mm
17:14 -8.4 °C -11.9 °C 34384.8 hPa WNW 38.8 km/h 38.8 km/h 66 % 0 mm
17:17 -8.4 °C -12.1 °C 34384.8 hPa WSW 44.7 km/h 44.7 km/h 65 % 0 mm
17:20 -8.4 °C -12.2 °C 34371.3 hPa WSW 47.6 km/h 47.6 km/h 64 % 0 mm
17:23 -8.3 °C -12.1 °C 34384.8 hPa West 44.7 km/h 44.7 km/h 64 % 0 mm
17:26 -8.3 °C -12.2 °C 34384.8 hPa WNW 35.7 km/h 35.7 km/h 63 % 0 mm
17:31 -8.2 °C -12.2 °C 34384.8 hPa West 38.8 km/h 38.8 km/h 63 % 0 mm
17:36 -8.2 °C -12.2 °C 34384.8 hPa West 33.6 km/h 33.6 km/h 63 % 0 mm
17:38 -8.2 °C -12.2 °C 34384.8 hPa West 50.7 km/h 50.7 km/h 63 % 0 mm
17:42 -8.2 °C -12.2 °C 34395 hPa WNW 47.6 km/h 47.6 km/h 63 % 0 mm
17:47 -8.2 °C -12.2 °C 34395 hPa WNW 26.9 km/h 26.9 km/h 63 % 0 mm
17:52 -8.2 °C -12.2 °C 34395 hPa West 29.8 km/h 29.8 km/h 63 % 0 mm
17:55 -8.2 °C -12.2 °C 34395 hPa West 41.7 km/h 41.7 km/h 63 % 0 mm
17:58 -8.2 °C -12.1 °C 34395 hPa West 41.7 km/h 41.7 km/h 64 % 0 mm
18:00 -8.2 °C -12.2 °C 34395 hPa West 44.7 km/h 44.7 km/h 63 % 0 mm
18:01 -8.2 °C -12.2 °C 34395 hPa WSW 44.7 km/h 44.7 km/h 63 % 0 mm
18:06 -8.2 °C -12.1 °C 34395 hPa West 47.6 km/h 47.6 km/h 64 % 0 mm
18:11 -8.2 °C -12.2 °C 34395 hPa West 36.2 km/h 36.2 km/h 63 % 0 mm
18:16 -8.2 °C -12.2 °C 34395 hPa WNW 38.8 km/h 38.8 km/h 63 % 0 mm
18:17 -8.2 °C -12.2 °C 34395 hPa WNW 44.7 km/h 44.7 km/h 63 % 0 mm
18:22 -8.2 °C -12.2 °C 34395 hPa NW 26.9 km/h 26.9 km/h 63 % 0 mm
18:23 -8.2 °C -12.2 °C 34395 hPa WNW 26.9 km/h 26.9 km/h 63 % 0 mm
18:28 -8.2 °C -12.3 °C 34395 hPa WNW 29.8 km/h 29.8 km/h 62 % 0 mm
18:30 -8.2 °C -12.4 °C 34395 hPa West 29.8 km/h 29.8 km/h 61 % 0 mm
18:32 -8.2 °C -12.3 °C 34395 hPa NNW 69.8 km/h 69.8 km/h 62 % 0 mm
18:36 -8.1 °C -12.4 °C 34395 hPa NW 38.8 km/h 38.8 km/h 60 % 0 mm
18:41 -8.1 °C -12.3 °C 34395 hPa West 44.7 km/h 44.7 km/h 61 % 0 mm
18:42 -8.1 °C -12.3 °C 34395 hPa West 51.8 km/h 51.8 km/h 61 % 0 mm
18:47 -8 °C -12.7 °C 34395 hPa West 44.7 km/h 44.7 km/h 58 % 0 mm
18:49 -8 °C -12.6 °C 34395 hPa WNW 44.7 km/h 44.7 km/h 59 % 0 mm
18:52 -8 °C -12.6 °C 34405.1 hPa West 29.8 km/h 29.8 km/h 59 % 0 mm
18:58 -7.9 °C -12.7 °C 34405.1 hPa West 68.6 km/h 68.6 km/h 57 % 0 mm
19:00 -7.9 °C -12.6 °C 34405.1 hPa WNW 31.1 km/h 69.8 km/h 58 % 0 mm
19:03 -7.9 °C -12.4 °C 34405.1 hPa West 41.7 km/h 41.7 km/h 59 % 0 mm
19:08 -8 °C -12.4 °C 34405.1 hPa WNW 29.8 km/h 29.8 km/h 60 % 0 mm
19:13 -8.1 °C -12.4 °C 34405.1 hPa West 53.6 km/h 53.6 km/h 60 % 0 mm
19:14 -8.2 °C -12.5 °C 34405.1 hPa WNW 38.8 km/h 38.8 km/h 60 % 0 mm
19:18 -8.2 °C -12.4 °C 34405.1 hPa West 36.2 km/h 36.2 km/h 61 % 0 mm
19:20 -8.2 °C -12.3 °C 34418.7 hPa West 38.8 km/h 38.8 km/h 62 % 0 mm
19:23 -8.2 °C -12.4 °C 34418.7 hPa NW 50.7 km/h 50.7 km/h 61 % 0 mm
19:26 -8.2 °C -12.3 °C 34418.7 hPa West 35.7 km/h 35.7 km/h 62 % 0 mm
19:28 -8.2 °C -12.3 °C 34418.7 hPa West 50.7 km/h 50.7 km/h 62 % 0 mm
19:31 -8.2 °C -12.6 °C 34418.7 hPa West 44.7 km/h 44.7 km/h 60 % 0 mm
19:34 -8.2 °C -12.5 °C 34418.7 hPa NW 36.2 km/h 36.2 km/h 60 % 0 mm
19:39 -8.1 °C -12.4 °C 34418.7 hPa WNW 29.8 km/h 29.8 km/h 60 % 0 mm
19:43 -8.2 °C -12.4 °C 34418.7 hPa WNW 38.8 km/h 38.8 km/h 61 % 0 mm
19:48 -8.2 °C -12.4 °C 34418.7 hPa West 36.2 km/h 36.2 km/h 61 % 0 mm
19:50 -8.2 °C -12.2 °C 34418.7 hPa NW 32.8 km/h 32.8 km/h 62 % 0 mm
19:52 -8.2 °C -12.4 °C 34428.8 hPa West 38.8 km/h 38.8 km/h 61 % 0 mm
19:55 -8.2 °C -12.4 °C 34428.8 hPa WNW 38.8 km/h 38.8 km/h 61 % 0 mm
19:57 -8.2 °C -12.4 °C 34428.8 hPa WNW 38.8 km/h 38.8 km/h 61 % 0 mm
20:01 -8.2 °C -12.3 °C 34428.8 hPa West 29.8 km/h 29.8 km/h 62 % 0 mm
20:06 -8.2 °C -12.3 °C 34428.8 hPa West 50.7 km/h 50.7 km/h 62 % 0 mm
20:11 -8.1 °C -12.3 °C 34428.8 hPa WNW 29.8 km/h 29.8 km/h 61 % 0 mm
20:12 -8.1 °C -12.3 °C 34428.8 hPa West 29.8 km/h 29.8 km/h 61 % 0 mm
20:17 -8.2 °C -12.3 °C 34428.8 hPa West 29.8 km/h 29.8 km/h 62 % 0 mm
20:22 -8.2 °C -12.3 °C 34428.8 hPa WNW 47.6 km/h 47.6 km/h 62 % 0 mm
20:26 -8.2 °C -12.3 °C 34428.8 hPa NW 41.7 km/h 41.7 km/h 62 % 0 mm
20:28 -8.2 °C -12.3 °C 34428.8 hPa WNW 46.7 km/h 46.7 km/h 62 % 0 mm
20:33 -8.2 °C -12.2 °C 34428.8 hPa NW 32.8 km/h 32.8 km/h 63 % 0 mm
20:34 -8.2 °C -12.2 °C 34428.8 hPa WNW 33.6 km/h 33.6 km/h 63 % 0 mm
20:35 -8.2 °C -12.2 °C 34428.8 hPa WNW 23.3 km/h 33.6 km/h 63 % 0 mm
20:40 -8.3 °C -12.3 °C 34428.8 hPa WNW 32.8 km/h 32.8 km/h 63 % 0 mm
20:42 -8.3 °C -12.2 °C 34428.8 hPa NW 38.8 km/h 38.8 km/h 63 % 0 mm
20:45 -8.3 °C -12.3 °C 34428.8 hPa NW 33.6 km/h 54.4 km/h 62 % 0 mm
20:49 -8.3 °C -12.2 °C 34442.4 hPa West 31.1 km/h 31.1 km/h 63 % 0 mm
20:50 -8.3 °C -12.3 °C 34442.4 hPa NW 47.6 km/h 47.6 km/h 62 % 0 mm
20:55 -8.2 °C -12.6 °C 34442.4 hPa NW 41.7 km/h 41.7 km/h 60 % 0 mm
20:56 -8.2 °C -12.6 °C 34442.4 hPa WNW 41.7 km/h 41.7 km/h 60 % 0 mm
20:59 -8.1 °C -12.4 °C 34442.4 hPa NW 38.8 km/h 38.8 km/h 60 % 0 mm
21:01 -8.1 °C -12.4 °C 34442.4 hPa WNW 44.7 km/h 44.7 km/h 60 % 0 mm
21:06 -8.1 °C -12.6 °C 34442.4 hPa NW 44.7 km/h 44.7 km/h 59 % 0 mm
21:11 -8 °C -12.6 °C 34428.8 hPa WNW 50.7 km/h 50.7 km/h 59 % 0 mm
21:12 -8 °C -12.6 °C 34428.8 hPa WNW 53.6 km/h 53.6 km/h 59 % 0 mm
21:17 -8.1 °C -12.6 °C 34442.4 hPa NW 50.7 km/h 50.7 km/h 59 % 0 mm
21:21 -8.1 °C -12.7 °C 34428.8 hPa NW 62.6 km/h 62.6 km/h 58 % 0 mm
21:23 -8 °C -12.7 °C 34428.8 hPa NW 62.1 km/h 62.1 km/h 58 % 0 mm
21:26 -8 °C -12.7 °C 34442.4 hPa NW 65.5 km/h 65.5 km/h 58 % 0 mm
21:31 -8.1 °C -12.7 °C 34428.8 hPa NNW 62.6 km/h 62.6 km/h 58 % 0 mm
21:32 -8.1 °C -12.7 °C 34428.8 hPa NNW 62.6 km/h 62.6 km/h 58 % 0 mm
21:37 -8.1 °C -12.7 °C 34442.4 hPa NW 50.7 km/h 50.7 km/h 58 % 0 mm
21:42 -8.1 °C -12.7 °C 34442.4 hPa NNW 59.5 km/h 59.5 km/h 58 % 0 mm
21:43 -8.2 °C -12.8 °C 34442.4 hPa NW 59.5 km/h 59.5 km/h 58 % 0 mm
21:48 -8.2 °C -12.8 °C 34442.4 hPa NW 56.6 km/h 56.6 km/h 58 % 0 mm
21:49 -8.2 °C -12.8 °C 34442.4 hPa NW 50.7 km/h 50.7 km/h 58 % 0 mm
21:54 -8.2 °C -12.8 °C 34452.6 hPa NW 62.6 km/h 62.6 km/h 58 % 0 mm
21:59 -8.2 °C -12.9 °C 34442.4 hPa NW 62.6 km/h 62.6 km/h 58 % 0 mm
22:01 -8.2 °C -12.9 °C 34452.6 hPa NW 64.7 km/h 64.7 km/h 58 % 0 mm
22:05 -8.2 °C -13 °C 34452.6 hPa WNW 59.5 km/h 59.5 km/h 57 % 0 mm
22:07 -8.2 °C -13 °C 34442.4 hPa NNW 77.4 km/h 77.4 km/h 57 % 0 mm
22:11 -8.2 °C -13 °C 34442.4 hPa North 59.5 km/h 59.5 km/h 57 % 0 mm
22:12 -8.3 °C -13.1 °C 34442.4 hPa WNW 59.5 km/h 59.5 km/h 57 % 0 mm
22:17 -8.3 °C -12.9 °C 34442.4 hPa NW 50.7 km/h 50.7 km/h 58 % 0 mm
22:18 -8.3 °C -12.9 °C 34442.4 hPa NW 50.7 km/h 50.7 km/h 58 % 0 mm
22:19 -8.3 °C -12.9 °C 34442.4 hPa WNW 50.7 km/h 50.7 km/h 58 % 0 mm
22:23 -8.3 °C -12.9 °C 34452.6 hPa NW 59.5 km/h 59.5 km/h 58 % 0 mm
22:25 -8.3 °C -12.9 °C 34442.4 hPa WNW 62.6 km/h 62.6 km/h 58 % 0 mm
22:29 -8.3 °C -12.9 °C 34452.6 hPa NW 54.4 km/h 54.4 km/h 58 % 0 mm
22:34 -8.3 °C -12.9 °C 34452.6 hPa WNW 65.5 km/h 65.5 km/h 58 % 0 mm
22:35 -8.4 °C -13 °C 34462.7 hPa NW 65.5 km/h 65.5 km/h 58 % 0 mm
22:40 -8.4 °C -13 °C 34452.6 hPa NW 41.4 km/h 62.1 km/h 58 % 0 mm
22:41 -8.4 °C -13 °C 34452.6 hPa NW 50.7 km/h 50.7 km/h 58 % 0 mm
22:42 -8.4 °C -13 °C 34452.6 hPa NW 54.4 km/h 54.4 km/h 58 % 0 mm
22:47 -8.3 °C -12.9 °C 34452.6 hPa NNW 59.5 km/h 59.5 km/h 58 % 0 mm
22:48 -8.4 °C -13 °C 34452.6 hPa NNW 56.6 km/h 56.6 km/h 58 % 0 mm
22:53 -8.4 °C -13 °C 34462.7 hPa NW 50.7 km/h 50.7 km/h 58 % 0 mm
22:57 -8.4 °C -13 °C 34462.7 hPa WNW 41.7 km/h 41.7 km/h 58 % 0 mm
22:59 -8.4 °C -13 °C 34462.7 hPa NW 50.7 km/h 50.7 km/h 58 % 0 mm
23:04 -8.4 °C -13.1 °C 34452.6 hPa NNW 50.7 km/h 50.7 km/h 58 % 0 mm
23:07 -8.4 °C -13.1 °C 34462.7 hPa NW 32.8 km/h 32.8 km/h 58 % 0 mm
23:09 -8.4 °C -13.1 °C 34462.7 hPa WNW 35.7 km/h 35.7 km/h 58 % 0 mm
23:13 -8.4 °C -13.1 °C 34462.7 hPa NW 41.4 km/h 41.4 km/h 58 % 0 mm
23:14 -8.4 °C -13.1 °C 34462.7 hPa NNW 59.5 km/h 59.5 km/h 58 % 0 mm
23:19 -8.4 °C -13 °C 34476.3 hPa WNW 41.4 km/h 41.4 km/h 58 % 0 mm
23:24 -8.4 °C -13 °C 34462.7 hPa NW 35.7 km/h 35.7 km/h 58 % 0 mm
23:25 -8.4 °C -13 °C 34462.7 hPa NW 35.7 km/h 35.7 km/h 58 % 0 mm
23:30 -8.4 °C -12.9 °C 34476.3 hPa WNW 26.9 km/h 26.9 km/h 59 % 0 mm
23:35 -8.4 °C -12.9 °C 34476.3 hPa NW 15 km/h 15 km/h 59 % 0 mm
23:36 -8.5 °C -12.9 °C 34476.3 hPa West 15 km/h 15 km/h 59 % 0 mm
23:37 -8.5 °C -12.9 °C 34476.3 hPa NW 15.6 km/h 15.6 km/h 59 % 0 mm
23:42 -8.6 °C -13 °C 34476.3 hPa West 23.8 km/h 23.8 km/h 59 % 0 mm
23:43 -8.6 °C -12.9 °C 34486.4 hPa West 18.2 km/h 18.2 km/h 60 % 0 mm
23:48 -8.6 °C -12.9 °C 34486.4 hPa West 17.9 km/h 17.9 km/h 60 % 0 mm
23:49 -8.7 °C -12.8 °C 34476.3 hPa WSW 23.8 km/h 23.8 km/h 61 % 0 mm
23:54 -8.8 °C -12.7 °C 34476.3 hPa West 32.8 km/h 32.8 km/h 63 % 0 mm
23:55 -8.8 °C -12.7 °C 34476.3 hPa WNW 32.8 km/h 32.8 km/h 63 % 0 mm
23:59 -8.9 °C -12.7 °C 34476.3 hPa West 32.8 km/h 32.8 km/h 64 % 0 mm
Puerto Banus, Marbella
Elogios de Weather Underground - 2.5 mb

Guión original por  Jim McMurry - jmcmurry@mwt.net Adaptado para la plantilla por  Wim van der Kuil - Leuven-Template.eu

Usted encontrará nuestra información del tiempo también en:

Weather Underground

Iberian Peninsula Weather Network